Home Latest Filings Latest Buys Latest Sells Institutions Derivatives Hot Buys Data Screener Email Alerts Insider Charts
TKR - As of  11/14/18, 11:10:19 AM:   277 Insider Transactions.

Sector: Industrial Goods    Industry: Machine Tools & Accessories
Prev Close:$31.28  Avg Vol(3m): 757,253  P/E: 20.40  EPS: 1.53

Email this page to a friend.    Institutional Transactions for TKR

                Buy: Blue    Sell: Red
Non-meaningful transactions (gifts, grants, etc.) are automatically filtered out for quicker actions.
Buy(P) /
Sell(S)
P/S date Filed Date Company Symbol Insider Relationship Share Amt. Unit Price Total Proceeds Shares Owned Return(1m) Details
P 2018-11-05 2018-11-06 16:49:30.0 TIMKEN CO TKR SULLIVAN FRANK C director 5,000 $41.05 $205,250.00 51,932 view
S 2018-08-21 2018-08-22 16:36:57.0 TIMKEN CO TKR Chadwick Shelly Marie officer (Chief Accounting Officer) 1,043 $48.85 $50,950.60 1,917 view
S 2018-08-10 2018-08-13 16:55:39.0 TIMKEN CO TKR Fracassa Philip D. officer (EVP & CFO) 3,582 $48.39 $173,333.00 38,534 view
S 2018-05-30 2018-05-31 15:50:50.0 TIMKEN CO TKR TIMKEN WARD J JR director 4,002 $49.10 $196,493.00 249,995 view
S 2018-05-08 2018-05-09 17:12:48.0 TIMKEN CO TKR Fracassa Philip D. officer (EVP & CFO) 3,739 $47.71 $178,388.00 38,534 view
P 2018-05-03 2018-05-07 18:34:59.0 TIMKEN CO TKR SULLIVAN FRANK C director 2,000 $44.85 $89,700.00 46,932 view
S 2018-02-22 2018-02-23 16:19:24.0 TIMKEN CO TKR Kyle Richard G director officer (President and CEO) 3,084 $46.74 $144,146.00 107,720 view
S 2018-02-20 2018-02-21 16:10:22.0 TIMKEN CO TKR WOODS JACQUELINE F director 3,350 $45.12 $151,152.00 15,878 view
S 2017-11-30 2017-11-30 17:02:26.0 TIMKEN CO TKR Kyle Richard G director officer (President and CEO) 9,242 $49.75 $459,790.00 78,636 view
S 2017-05-31 2017-06-01 09:46:55.0 TIMKEN CO TKR WOODS JACQUELINE F director 1,300 $46.02 $59,826.00 19,249 view
S 2017-05-10 2017-05-12 14:40:01.0 TIMKEN CO TKR BURKHART WILLIAM R officer (EVP, GC and Secretary) 7,614 $47.93 $364,939.00 41,240 N/A view
S 2017-05-10 2017-05-12 14:40:01.0 TIMKEN CO TKR BURKHART WILLIAM R officer (EVP, GC and Secretary) 11,437 $47.94 $548,290.00 41,240 N/A view
S 2017-05-10 2017-05-12 14:40:01.0 TIMKEN CO TKR BURKHART WILLIAM R officer (EVP, GC and Secretary) 13,529 $47.94 $648,580.00 41,240 N/A view
S 2017-04-28 2017-05-01 15:41:53.0 TIMKEN CO TKR Myers Ronald J officer (VP - Human Resources) 2,510 $48.12 $120,781.00 8,078 N/A view
S 2017-04-28 2017-05-01 15:41:53.0 TIMKEN CO TKR Myers Ronald J officer (VP - Human Resources) 2,688 $48.12 $129,347.00 8,078 N/A view
S 2017-02-21 2017-02-23 13:10:01.0 TIMKEN CO TKR Coughlin Christopher A officer (EVP & Group President) 3,184 $44.51 $141,720.00 65,987 N/A view
S 2017-02-21 2017-02-22 17:34:03.0 TIMKEN CO TKR Chadwick Shelly Marie officer (Chief Accounting Officer) 1,276 $44.70 $57,037.20 977 N/A view
S 2017-02-21 2017-02-22 17:34:03.0 TIMKEN CO TKR Chadwick Shelly Marie officer (Chief Accounting Officer) 1,046 $44.80 $46,860.80 2,253 N/A view
S 2017-02-21 2017-02-22 17:33:59.0 TIMKEN CO TKR Fracassa Philip D. officer (EVP & CFO) 4,222 $44.48 $187,795.00 35,538 N/A view
S 2017-02-15 2017-02-17 08:16:41.0 TIMKEN CO TKR TIMKEN WARD J JR director 48,073 $45.12 $2,169,240.00 236,192 N/A view
S 2017-02-13 2017-02-15 18:04:33.0 TIMKEN CO TKR BURKHART WILLIAM R officer (EVP, GC and Secretary) 10,843 $45.50 $493,356.00 41,240 N/A view
S 2017-02-13 2017-02-15 18:04:33.0 TIMKEN CO TKR BURKHART WILLIAM R officer (EVP, GC and Secretary) 12,928 $45.49 $588,095.00 41,240 N/A view
S 2017-02-13 2017-02-15 18:04:33.0 TIMKEN CO TKR BURKHART WILLIAM R officer (EVP, GC and Secretary) 5,771 $45.49 $262,523.00 41,240 N/A view
S 2016-08-29 2016-08-29 16:39:42.0 TIMKEN CO TKR BURKHART WILLIAM R officer (EVP, GC and Secretary) 4,235 $34.37 $145,557.00 35,557 N/A view
S 2016-08-24 2016-08-24 16:47:42.0 TIMKEN CO TKR Fracassa Philip D. officer (EVP & CFO) 2,229 $34.27 $76,387.80 28,284 N/A view
S 2016-05-31 2016-06-01 14:00:27.0 TIMKEN CO TKR WOODS JACQUELINE F director 2,500 $33.74 $84,350.00 18,017 N/A view
S 2016-05-24 2016-05-25 17:29:07.0 TIMKEN CO TKR WOODS JACQUELINE F director 1,250 $33.27 $41,587.50 20,517 N/A view
S 2015-11-25 2015-12-02 16:41:58.0 TIMKEN CO TKR BURKHART WILLIAM R officer (EVP, GC and Secretary) 45 $32.16 $1,447.20 33,693 N/A view
S 2015-05-21 2015-05-22 14:14:17.0 TIMKEN CO TKR TIMKEN WARD J JR director 88,314 $40.63 $3,587,790.00 199,339 N/A view
S 2015-05-14 2015-05-15 16:06:41.0 TIMKEN CO TKR WOODS JACQUELINE F director 2,000 $40.50 $81,000.00 18,182 N/A view
S 2014-08-28 2014-08-29 11:14:02.0 TIMKEN CO TKR WOODS JACQUELINE F director 1,340 $45.43 $60,876.20 17,137 4.82% view
S 2014-02-14 2014-02-18 16:33:17.0 TIMKEN CO TKR EISENBERG GLENN A officer (Ex VP Finance & Administration) 11,016 $59.60 $656,554.00 61,605 1.53% view
S 2013-10-28 2013-10-30 13:36:44.0 TIMKEN CO TKR Coughlin Christopher A officer (Group President) 10,683 $52.12 $556,798.00 48,535 0.75% view
S 2013-10-28 2013-10-30 13:36:44.0 TIMKEN CO TKR Coughlin Christopher A officer (Group President) 9,466 $52.15 $493,652.00 48,535 0.81% view
S 2013-05-15 2013-05-16 15:34:15.0 TIMKEN CO TKR TIMKEN JOHN M JR director 10,460 $56.87 $594,859.00 0 -1.51% view
S 2013-05-14 2013-05-15 16:19:15.0 TIMKEN CO TKR BURKHART WILLIAM R officer (Sr VP and General Counsel) 3,640 $57.16 $208,062.00 24,717 -1.00% view
S 2013-05-14 2013-05-15 16:19:15.0 TIMKEN CO TKR BURKHART WILLIAM R officer (Sr VP and General Counsel) 3,260 $57.16 $186,342.00 24,717 -1.00% view
S 2013-05-10 2013-05-14 08:44:14.0 TIMKEN CO TKR Mihaila John Theodore officer (Sr VP and Controller) 1,840 $56.94 $104,770.00 8,382 -0.88% view
S 2013-05-10 2013-05-14 08:44:14.0 TIMKEN CO TKR Mihaila John Theodore officer (Sr VP and Controller) 2,011 $56.94 $114,506.00 8,382 -0.88% view
S 2013-05-09 2013-05-10 15:05:36.0 TIMKEN CO TKR Kyle Richard G officer (Group President) 2,435 $56.21 $136,871.00 54,499 -2.62% view
S 2013-05-09 2013-05-10 15:05:36.0 TIMKEN CO TKR Kyle Richard G officer (Group President) 8,766 $56.20 $492,649.00 52,934 -2.63% view
S 2013-05-09 2013-05-10 15:04:40.0 TIMKEN CO TKR EISENBERG GLENN A officer (Ex VP Finance & Administration) 8,875 $56.53 $501,704.00 62,802 -2.03% view
S 2013-05-09 2013-05-10 15:04:40.0 TIMKEN CO TKR EISENBERG GLENN A officer (Ex VP Finance & Administration) 9,900 $56.53 $559,647.00 62,802 -2.03% view
S 2013-05-08 2013-05-10 15:02:55.0 TIMKEN CO TKR Walker Donald L officer (Sr VP - HR and Org Advancement) 2,694 $56.41 $151,969.00 30,010 -2.25% view
S 2013-05-08 2013-05-10 15:02:55.0 TIMKEN CO TKR Walker Donald L officer (Sr VP - HR and Org Advancement) 2,897 $56.41 $163,420.00 30,010 -2.25% view
S 2012-08-30 2013-02-05 13:47:46.0 TIMKEN CO TKR WOODS JACQUELINE F director 1,935 $39.63 $76,684.00 17,927 6.23% view
S 2012-05-04 2012-05-07 09:18:46.0 TIMKEN CO TKR Kyle Richard G officer (President-mob ind & aerospace) 5,143 $54.23 $278,905.00 25,036 16.82% view
S 2012-05-04 2012-05-07 09:18:46.0 TIMKEN CO TKR Kyle Richard G officer (President-mob ind & aerospace) 5,963 $54.19 $323,135.00 21,179 16.76% view
S 2012-05-02 2012-05-03 10:29:48.0 TIMKEN CO TKR WOODS JACQUELINE F director 560 $56.80 $31,808.00 17,687 19.10% view
S 2012-05-02 2012-05-02 16:40:00.0 TIMKEN CO TKR Coughlin Christopher A officer (President-proc ind & supp chn) 8,993 $55.47 $498,842.00 24,327 17.16% view
S 2012-05-02 2012-05-02 16:40:00.0 TIMKEN CO TKR Coughlin Christopher A officer (President-proc ind & supp chn) 8,875 $55.32 $490,965.00 24,327 16.94% view
S 2012-05-02 2012-05-02 16:40:00.0 TIMKEN CO TKR Coughlin Christopher A officer (President-proc ind & supp chn) 8,987 $55.66 $500,216.00 24,327 17.45% view
S 2012-05-01 2012-05-01 15:39:15.0 TIMKEN CO TKR WOODS JACQUELINE F director 3,000 $56.84 $170,520.00 18,247 19.16% view
S 2012-04-30 2012-04-30 15:07:34.0 TIMKEN CO TKR Kyle Richard G officer (President-mob ind & aerospace) 3,243 $55.75 $180,797.00 19,142 10.13% view
S 2012-02-23 2012-02-23 15:13:24.0 TIMKEN CO TKR EISENBERG GLENN A officer (Ex VP-Finance & Admin.) 10,495 $53.10 $557,284.00 64,001 3.60% view
S 2012-02-21 2012-02-21 16:26:26.0 TIMKEN CO TKR Kyle Richard G officer (President-mob ind & aerospace) 2,277 $53.30 $121,364.00 17,885 1.59% view
S 2012-02-17 2012-02-21 08:21:37.0 TIMKEN CO TKR BURKHART WILLIAM R officer (Sr. VP and General Counsel) 4,131 $53.10 $219,356.00 25,428 -1.94% view
S 2012-02-13 2012-02-14 15:38:59.0 TIMKEN CO TKR EISENBERG GLENN A officer (Ex VP-Finance & Admin.) 10,324 $52.37 $540,668.00 64,001 -1.13% view
S 2012-02-13 2012-02-14 15:38:59.0 TIMKEN CO TKR EISENBERG GLENN A officer (Ex VP-Finance & Admin.) 9,085 $52.31 $475,236.00 64,001 -1.24% view
S 2012-02-13 2012-02-14 15:37:12.0 TIMKEN CO TKR Mihaila John Theodore officer (Senior VP & Controller) 4,105 $52.41 $215,143.00 8,708 -1.05% view
S 2012-02-13 2012-02-14 15:37:12.0 TIMKEN CO TKR Mihaila John Theodore officer (Senior VP & Controller) 3,750 $52.40 $196,500.00 8,708 -1.07% view
S 2012-02-13 2012-02-14 15:37:12.0 TIMKEN CO TKR Mihaila John Theodore officer (Senior VP & Controller) 3,261 $52.40 $170,876.00 8,708 -1.07% view
S 2012-02-13 2012-02-14 15:37:12.0 TIMKEN CO TKR Mihaila John Theodore officer (Senior VP & Controller) 2,580 $52.30 $134,934.00 8,708 -1.26% view
S 2012-02-07 2012-02-08 13:46:29.0 TIMKEN CO TKR BURKHART WILLIAM R officer (Sr. VP and General Counsel) 3,849 $51.17 $196,953.00 23,156 1.35% view
S 2012-02-07 2012-02-08 13:46:29.0 TIMKEN CO TKR BURKHART WILLIAM R officer (Sr. VP and General Counsel) 3,331 $51.32 $170,947.00 23,156 1.64% view
S 2011-11-08 2011-11-09 16:28:31.0 TIMKEN CO TKR COX PHILLIP R director 2,500 $43.40 $108,500.00 17,600 7.33% view
S 2011-11-03 2011-11-04 14:41:59.0 TIMKEN CO TKR WOODS JACQUELINE F director 2,750 $44.33 $121,908.00 18,247 5.64% view
P 2011-08-08 2011-08-09 15:41:17.0 TIMKEN CO TKR SULLIVAN FRANK C director 3,000 $33.22 $99,660.00 29,427 8.76% view
P 2011-08-08 2011-08-09 15:34:55.0 TIMKEN CO TKR BALLBACH JOHN M director 1,000 $36.56 $36,560.00 14,138 -1.18% view
S 2011-04-29 2011-05-03 14:19:58.0 TIMKEN CO TKR BURKHART WILLIAM R officer (Sr. VP and General Counsel) 3,790 $56.18 $212,922.00 24,700 8.81% view
S 2011-04-29 2011-05-03 14:19:58.0 TIMKEN CO TKR BURKHART WILLIAM R officer (Sr. VP and General Counsel) 3,574 $56.32 $201,288.00 24,841 9.04% view
S 2011-04-29 2011-05-03 14:19:58.0 TIMKEN CO TKR BURKHART WILLIAM R officer (Sr. VP and General Counsel) 3,119 $56.18 $175,225.00 24,171 8.81% view
S 2011-04-29 2011-05-03 14:19:58.0 TIMKEN CO TKR BURKHART WILLIAM R officer (Sr. VP and General Counsel) 3,296 $56.20 $185,235.00 24,269 8.84% view
S 2011-04-28 2011-05-02 16:29:10.0 TIMKEN CO TKR TIMKEN JOHN M JR director 20,000 $55.70 $1,114,000.00 460,000 8.03% view
S 2011-04-28 2011-05-02 16:27:36.0 TIMKEN CO TKR TIMKEN WARD JACKSON director 20,000 $55.70 $1,114,000.00 460,000 8.03% view
S 2011-05-02 2011-05-02 15:29:29.0 TIMKEN CO TKR WOODS JACQUELINE F director 3,000 $55.50 $166,500.00 17,897 9.03% view
S 2011-05-02 2011-05-02 15:29:29.0 TIMKEN CO TKR WOODS JACQUELINE F director 3,000 $55.49 $166,470.00 17,897 9.01% view
S 2011-04-28 2011-04-28 16:56:36.0 TIMKEN CO TKR WOODS JACQUELINE F director 2,070 $55.89 $115,692.00 17,897 8.34% view
S 2011-02-17 2011-02-18 11:10:28.0 TIMKEN CO TKR TIMKEN WARD JACKSON director 3,600 $51.99 $187,168.00 20,000 7.50% view
S 2011-02-17 2011-02-18 11:10:28.0 TIMKEN CO TKR TIMKEN WARD JACKSON director 400 $51.98 $20,793.10 23,600 7.49% view
S 2011-02-09 2011-02-11 13:08:37.0 TIMKEN CO TKR MIRAGLIA SALVATORE J JR officer (President - Steel) 9,957 $49.86 $496,456.00 58,519 3.25% view
S 2011-02-09 2011-02-11 13:08:37.0 TIMKEN CO TKR MIRAGLIA SALVATORE J JR officer (President - Steel) 9,224 $49.99 $461,108.00 59,077 3.50% view
S 2011-02-09 2011-02-11 13:08:37.0 TIMKEN CO TKR MIRAGLIA SALVATORE J JR officer (President - Steel) 8,032 $49.99 $401,520.00 57,569 3.50% view
S 2011-02-09 2011-02-11 13:08:37.0 TIMKEN CO TKR MIRAGLIA SALVATORE J JR officer (President - Steel) 6,532 $49.97 $326,404.00 57,444 3.46% view
S 2011-02-09 2011-02-11 13:06:44.0 TIMKEN CO TKR COX PHILLIP R director 3,000 $49.41 $148,230.00 17,000 2.37% view
S 2011-02-09 2011-02-11 13:05:11.0 TIMKEN CO TKR EISENBERG GLENN A officer (Ex VP-Finance & Admin.) 11,399 $49.47 $563,908.00 61,837 2.49% view
S 2011-02-09 2011-02-11 13:05:11.0 TIMKEN CO TKR EISENBERG GLENN A officer (Ex VP-Finance & Admin.) 10,558 $49.46 $522,199.00 62,478 2.47% view
S 2011-02-09 2011-02-11 13:05:11.0 TIMKEN CO TKR EISENBERG GLENN A officer (Ex VP-Finance & Admin.) 9,185 $49.45 $454,198.00 60,751 2.45% view
S 2011-02-09 2011-02-11 13:05:11.0 TIMKEN CO TKR EISENBERG GLENN A officer (Ex VP-Finance & Admin.) 7,624 $49.45 $377,007.00 60,637 2.45% view
S 2010-11-29 2010-11-30 15:04:19.0 TIMKEN CO TKR ARNOLD MICHAEL C officer (ExVP Brngs & Pwr Transmission) 40,000 $43.82 $1,752,800.00 60,966 -9.84% view
S 2010-11-12 2010-11-16 15:31:33.0 TIMKEN CO TKR TIMKEN WARD JACKSON director 20,000 $43.43 $868,694.00 480,000 -9.98% view
S 2010-11-12 2010-11-16 15:28:53.0 TIMKEN CO TKR TIMKEN JOHN M JR director 20,000 $43.43 $868,694.00 480,000 -9.98% view
S 2010-11-12 2010-11-15 14:21:26.0 TIMKEN CO TKR BURKHART WILLIAM R officer (Sr. VP and General Counsel) 7,700 $42.99 $331,023.00 19,644 -11.12% view
S 2010-11-12 2010-11-15 14:21:26.0 TIMKEN CO TKR BURKHART WILLIAM R officer (Sr. VP and General Counsel) 12,375 $42.94 $531,382.00 19,644 -11.25% view
S 2010-11-12 2010-11-15 14:21:26.0 TIMKEN CO TKR BURKHART WILLIAM R officer (Sr. VP and General Counsel) 13,000 $42.93 $558,090.00 19,644 -7.24% view
S 2010-11-12 2010-11-15 14:18:30.0 TIMKEN CO TKR EISENBERG GLENN A officer (Ex VP-Finance & Admin.) 15,954 $42.77 $682,353.00 52,651 -11.69% view
S 2010-11-12 2010-11-15 14:18:30.0 TIMKEN CO TKR EISENBERG GLENN A officer (Ex VP-Finance & Admin.) 18,974 $42.80 $812,087.00 52,981 -11.61% view
S 2010-11-12 2010-11-15 14:18:30.0 TIMKEN CO TKR EISENBERG GLENN A officer (Ex VP-Finance & Admin.) 15,739 $42.80 $673,629.00 52,866 -11.61% view
S 2010-11-12 2010-11-15 14:18:30.0 TIMKEN CO TKR EISENBERG GLENN A officer (Ex VP-Finance & Admin.) 7,615 $42.88 $326,531.00 52,240 -11.40% view
S 2010-11-03 2010-11-04 16:55:43.0 TIMKEN CO TKR Mihaila John Theodore officer (Senior VP & Controller) 3,675 $41.97 $154,240.00 8,328 -11.10% view
S 2010-08-04 2010-08-06 11:21:17.0 TIMKEN CO TKR Mihaila John Theodore officer (Senior VP & Controller) 1,976 $34.98 $69,120.50 12,406 -2.03% view
S 2010-08-04 2010-08-06 11:21:17.0 TIMKEN CO TKR Mihaila John Theodore officer (Senior VP & Controller) 3,602 $35.03 $126,178.00 12,105 -1.88% view
S 2010-08-04 2010-08-06 11:21:17.0 TIMKEN CO TKR Mihaila John Theodore officer (Senior VP & Controller) 8,522 $35.08 $298,952.00 12,435 -1.74% view
S 2010-08-04 2010-08-06 11:21:17.0 TIMKEN CO TKR Mihaila John Theodore officer (Senior VP & Controller) 2,889 $35.03 $101,202.00 12,068 -1.88% view
S 2010-08-04 2010-08-06 11:21:17.0 TIMKEN CO TKR Mihaila John Theodore officer (Senior VP & Controller) 683 $35.00 $23,905.00 12,024 -1.97% view
S 2010-08-03 2010-08-05 14:54:17.0 TIMKEN CO TKR ARNOLD MICHAEL C officer (ExVP Brngs & Pwr Transmission) 19,577 $34.35 $672,470.00 82,064 -3.90% view
S 2010-08-03 2010-08-05 14:54:17.0 TIMKEN CO TKR ARNOLD MICHAEL C officer (ExVP Brngs & Pwr Transmission) 24,609 $34.32 $844,581.00 82,432 -3.99% view
S 2010-08-03 2010-08-05 14:54:17.0 TIMKEN CO TKR ARNOLD MICHAEL C officer (ExVP Brngs & Pwr Transmission) 28,735 $34.22 $983,312.00 82,052 -4.30% view
S 2010-08-03 2010-08-05 14:54:17.0 TIMKEN CO TKR ARNOLD MICHAEL C officer (ExVP Brngs & Pwr Transmission) 26,699 $34.15 $911,771.00 84,092 -4.51% view
S 2010-08-03 2010-08-05 14:54:17.0 TIMKEN CO TKR ARNOLD MICHAEL C officer (ExVP Brngs & Pwr Transmission) 13,158 $34.28 $451,056.00 82,633 -4.11% view
S 2010-08-03 2010-08-05 13:16:06.0 TIMKEN CO TKR BURKHART WILLIAM R officer (Sr. VP and General Counsel) 3,055 $34.15 $104,328.00 19,644 -4.51% view
S 2010-08-03 2010-08-05 13:16:06.0 TIMKEN CO TKR BURKHART WILLIAM R officer (Sr. VP and General Counsel) 2,676 $34.15 $91,385.40 17,724 -4.51% view
S 2010-05-11 2010-05-12 14:37:40.0 TIMKEN CO TKR EISENBERG GLENN A officer (Ex VP-Finance & Admin.) 11,172 $32.88 $367,335.00 53,006 12.83% view
S 2010-05-03 2010-05-05 11:11:45.0 TIMKEN CO TKR MIRAGLIA SALVATORE J JR officer (President - Steel) 17,519 $35.11 $615,092.00 49,888 17.52% view
S 2010-05-03 2010-05-05 11:11:45.0 TIMKEN CO TKR MIRAGLIA SALVATORE J JR officer (President - Steel) 14,203 $35.12 $498,809.00 49,954 17.54% view
S 2010-05-03 2010-05-05 11:11:45.0 TIMKEN CO TKR MIRAGLIA SALVATORE J JR officer (President - Steel) 14,430 $35.11 $506,637.00 49,727 17.52% view
S 2010-05-03 2010-05-05 11:11:45.0 TIMKEN CO TKR MIRAGLIA SALVATORE J JR officer (President - Steel) 3,642 $35.14 $127,980.00 49,515 17.59% view
S 2010-02-24 2010-02-25 13:53:10.0 TIMKEN CO TKR ARNOLD MICHAEL C officer (ExVP Brngs & Pwr Transmission) 11,210 $25.94 $290,787.00 57,964 -9.29% view
S 2010-02-24 2010-02-25 13:53:10.0 TIMKEN CO TKR ARNOLD MICHAEL C officer (ExVP Brngs & Pwr Transmission) 8,762 $25.91 $227,023.00 56,887 -9.42% view
P 2010-02-17 2010-02-18 08:35:57.0 TIMKEN CO TKR BALLBACH JOHN M director 3,900 $26.10 $101,790.00 5,900 9.27% view
S 2010-02-10 2010-02-10 16:38:50.0 TIMKEN CO TKR MIRAGLIA SALVATORE J JR officer (President - Steel) 10,411 $23.84 $248,198.00 50,571 -16.78% view
P 2009-02-23 2009-02-25 14:05:48.0 TIMKEN CO TKR TIMKEN WARD J JR director officer (Chairman of the Board) 2,000 $11.71 $23,417.00 9,455 24.10% view
P 2009-02-23 2009-02-25 14:05:48.0 TIMKEN CO TKR TIMKEN WARD J JR director officer (Chairman of the Board) 2,000 $11.71 $23,417.00 10,155 24.10% view
P 2008-11-21 2008-11-25 15:50:06.0 TIMKEN CO TKR TIMKEN WARD JACKSON director 5,000 $11.35 $56,754.00 50,217 58.58% view
P 2008-11-10 2008-11-12 09:09:10.0 TIMKEN CO TKR TIMKEN WARD J JR director officer (Chairman of the Board) 1,952 $15.00 $29,280.00 50,000 11.67% view
P 2008-11-11 2008-11-12 09:09:10.0 TIMKEN CO TKR TIMKEN WARD J JR director officer (Chairman of the Board) 2,000 $14.03 $28,056.20 7,455 11.35% view
P 2008-11-11 2008-11-12 09:09:10.0 TIMKEN CO TKR TIMKEN WARD J JR director officer (Chairman of the Board) 2,000 $14.03 $28,056.20 8,155 11.35% view
P 2008-10-30 2008-10-30 17:09:42.0 TIMKEN CO TKR GRIFFITH JAMES W CEO 2,500 $17.34 $43,350.00 269,166 -16.32% view
P 2008-10-28 2008-10-30 13:44:36.0 TIMKEN CO TKR REILLY JOHN PAUL director 7,000 $15.10 $105,672.00 7,000 -3.88% view
P 2008-10-28 2008-10-28 14:03:09.0 TIMKEN CO TKR SULLIVAN FRANK C director 1,000 $14.65 $14,650.00 14,000 -0.96% view
P 2008-08-01 2008-08-04 14:19:52.0 TIMKEN CO TKR REILLY JOHN PAUL director 3,000 $33.04 $99,120.00 10,099 -2.18% view
S 2008-05-15 2008-05-19 08:32:28.0 TIMKEN CO TKR BURKHART WILLIAM R officer (Sr. VP and General Counsel) 2,571 $36.39 $93,558.70 20,112 0.14% view
S 2008-05-15 2008-05-19 08:32:28.0 TIMKEN CO TKR BURKHART WILLIAM R officer (Sr. VP and General Counsel) 2,505 $36.41 $91,207.00 19,433 0.19% view
S 2008-05-07 2008-05-07 15:41:56.0 TIMKEN CO TKR Mihaila John Theodore officer (Senior VP & Controller) 2,250 $36.54 $82,215.00 8,371 -0.96% view
S 2008-05-07 2008-05-07 15:41:56.0 TIMKEN CO TKR Mihaila John Theodore officer (Senior VP & Controller) 3,000 $36.56 $109,680.00 8,371 -0.90% view
S 2008-05-07 2008-05-07 15:41:56.0 TIMKEN CO TKR Mihaila John Theodore officer (Senior VP & Controller) 7,500 $36.56 $274,200.00 8,371 -0.90% view
S 2008-05-05 2008-05-06 10:26:41.0 TIMKEN CO TKR EISENBERG GLENN A officer (Executive VP-Finance and Admin) 10,000 $36.70 $367,000.00 54,925 -2.56% view
S 2008-05-02 2008-05-06 10:26:41.0 TIMKEN CO TKR EISENBERG GLENN A officer (Executive VP-Finance and Admin) 8,003 $36.77 $294,270.00 65,672 N/A view
S 2008-05-02 2008-05-06 10:26:41.0 TIMKEN CO TKR EISENBERG GLENN A officer (Executive VP-Finance and Admin) 16,336 $36.62 $598,224.00 66,089 N/A view
S 2008-05-02 2008-05-06 10:26:41.0 TIMKEN CO TKR EISENBERG GLENN A officer (Executive VP-Finance and Admin) 7,506 $36.73 $275,695.00 66,169 N/A view
S 2008-05-02 2008-05-05 16:36:20.0 TIMKEN CO TKR WOODS JACQUELINE F director 3,000 $36.33 $108,990.00 13,369 N/A view
S 2008-05-02 2008-05-05 16:36:20.0 TIMKEN CO TKR WOODS JACQUELINE F director 3,000 $36.34 $109,020.00 13,369 N/A view
S 2008-05-02 2008-05-05 16:36:20.0 TIMKEN CO TKR WOODS JACQUELINE F director 3,000 $36.33 $108,990.00 13,369 N/A view
S 2008-05-02 2008-05-05 16:31:43.0 TIMKEN CO TKR MIRAGLIA SALVATORE J JR officer (President - Steel) 3,578 $36.51 $130,633.00 53,461 N/A view
S 2008-05-02 2008-05-05 16:31:43.0 TIMKEN CO TKR MIRAGLIA SALVATORE J JR officer (President - Steel) 3,614 $36.53 $132,019.00 53,425 N/A view
S 2008-05-02 2008-05-05 16:31:43.0 TIMKEN CO TKR MIRAGLIA SALVATORE J JR officer (President - Steel) 14,275 $36.46 $520,466.00 53,764 N/A view
S 2008-05-02 2008-05-05 16:31:43.0 TIMKEN CO TKR MIRAGLIA SALVATORE J JR officer (President - Steel) 7,030 $36.51 $256,665.00 53,509 N/A view
S 2008-02-06 2008-02-06 16:18:33.0 TIMKEN CO TKR EISENBERG GLENN A officer (Executive VP-Finance and Admin) 1,000 $30.40 $30,400.00 66,983 3.88% view
S 2008-02-06 2008-02-06 16:18:33.0 TIMKEN CO TKR EISENBERG GLENN A officer (Executive VP-Finance and Admin) 9,000 $30.44 $273,960.00 67,983 4.01% view
S 2008-02-06 2008-02-06 16:18:33.0 TIMKEN CO TKR EISENBERG GLENN A officer (Executive VP-Finance and Admin) 8,193 $30.40 $249,067.00 76,983 3.88% view
S 2007-12-31 2008-02-06 10:08:26.0 TIMKEN CO TKR Deane Alastair R officer (Senior VP - Technology) 74 $33.25 $2,460.50 10,752 N/A view
S 2007-09-17 2008-02-06 10:08:26.0 TIMKEN CO TKR Deane Alastair R officer (Senior VP - Technology) 113 $33.01 $3,730.13 10,591 N/A view
S 2007-05-15 2008-02-06 10:08:26.0 TIMKEN CO TKR Deane Alastair R officer (Senior VP - Technology) 160 $33.58 $5,372.80 10,704 N/A view
S 2007-01-26 2008-02-06 10:08:26.0 TIMKEN CO TKR Deane Alastair R officer (Senior VP - Technology) 148 $28.16 $4,167.68 10,864 N/A view
S 2007-05-24 2007-05-25 10:46:44.0 TIMKEN CO TKR TOOT JOSEPH F JR director 2,550 $33.65 $85,797.30 68,766 -2.51% view
S 2007-05-24 2007-05-25 10:46:44.0 TIMKEN CO TKR TOOT JOSEPH F JR director 2,479 $33.65 $83,408.40 68,316 -2.51% view
S 2007-05-24 2007-05-25 10:46:44.0 TIMKEN CO TKR TOOT JOSEPH F JR director 2,503 $33.65 $84,215.90 67,795 -2.51% view
S 2007-05-23 2007-05-23 15:40:05.0 TIMKEN CO TKR RALSTON JOSEPH W director 3,000 $34.16 $102,480.00 14,501 -0.97% view
S 2007-05-22 2007-05-23 14:34:51.0 TIMKEN CO TKR BURKHART WILLIAM R officer (Sr. VP and General Counsel) 14,816 $34.34 $508,781.00 17,485 -0.44% view
S 2007-05-02 2007-05-03 10:34:47.0 TIMKEN CO TKR TOOT JOSEPH F JR director 7,000 $33.83 $236,810.00 62,298 13.75% view
S 2007-05-02 2007-05-03 10:18:20.0 TIMKEN CO TKR BURKHART WILLIAM R officer (Sr. VP and General Counsel) 3,250 $33.89 $110,142.00 32,264 13.90% view
S 2007-05-02 2007-05-03 10:18:20.0 TIMKEN CO TKR BURKHART WILLIAM R officer (Sr. VP and General Counsel) 7,500 $33.89 $254,175.00 32,264 13.90% view
S 2007-05-01 2007-05-02 17:14:19.0 TIMKEN CO TKR EISENBERG GLENN A officer (Executive VP-Finance and Admin) 8,750 $33.20 $290,500.00 71,847 12.11% view
S 2007-05-01 2007-05-02 17:14:19.0 TIMKEN CO TKR EISENBERG GLENN A officer (Executive VP-Finance and Admin) 12,500 $33.20 $415,000.00 71,847 12.11% view
S 2007-05-01 2007-05-02 17:08:04.0 TIMKEN CO TKR MIRAGLIA SALVATORE J JR officer (President - Steel) 4,000 $33.08 $132,320.00 49,806 11.79% view
S 2007-05-01 2007-05-02 17:08:04.0 TIMKEN CO TKR MIRAGLIA SALVATORE J JR officer (President - Steel) 4,000 $33.08 $132,320.00 49,806 11.79% view
S 2007-05-01 2007-05-02 17:08:04.0 TIMKEN CO TKR MIRAGLIA SALVATORE J JR officer (President - Steel) 7,500 $33.08 $248,100.00 49,806 11.79% view
S 2007-04-30 2007-05-02 16:29:52.0 TIMKEN CO TKR TIMKEN WARD JACKSON director 17,500 $33.17 $580,534.00 500,000 12.04% view
S 2007-04-30 2007-05-02 16:24:46.0 TIMKEN CO TKR TIMKEN JOHN M JR director 17,500 $33.17 $580,534.00 500,000 12.04% view
S 2007-05-02 2007-05-02 16:24:46.0 TIMKEN CO TKR TIMKEN JOHN M JR director 3,000 $33.74 $101,229.00 381,814 13.52% view
S 2007-05-02 2007-05-02 16:24:46.0 TIMKEN CO TKR TIMKEN JOHN M JR director 3,000 $33.74 $101,229.00 381,814 13.52% view
S 2007-05-02 2007-05-02 16:24:46.0 TIMKEN CO TKR TIMKEN JOHN M JR director 3,000 $33.74 $101,229.00 381,814 13.52% view
S 2007-04-30 2007-05-01 15:00:04.0 TIMKEN CO TKR Mihaila John Theodore officer (Sr. VP and Controller) 8,000 $33.30 $266,400.00 7,480 12.37% view
P 2007-02-28 2007-03-02 12:15:36.0 TIMKEN CO TKR TIMKEN WARD J JR director officer (Chairman of the Board) 1,500 $28.50 $42,750.00 48,048 4.98% view
S 2007-02-28 2007-03-02 10:39:36.0 TIMKEN CO TKR BURKHART WILLIAM R officer (Sr. VP and General Counsel) 6,687 $28.53 $190,780.00 32,835 -4.87% view
S 2007-02-21 2007-02-22 13:29:15.0 TIMKEN CO TKR Deane Alastair R officer (Senior VP - Technology) 1,750 $29.60 $51,800.00 11,761 -3.68% view
S 2007-02-21 2007-02-22 13:28:53.0 TIMKEN CO TKR ARNOLD MICHAEL C officer (President - Industrial) 6,696 $29.61 $198,269.00 64,225 -3.65% view
S 2007-02-21 2007-02-22 13:28:53.0 TIMKEN CO TKR ARNOLD MICHAEL C officer (President - Industrial) 10,000 $29.61 $296,100.00 63,421 -3.65% view
S 2007-02-21 2007-02-22 13:28:53.0 TIMKEN CO TKR ARNOLD MICHAEL C officer (President - Industrial) 3,750 $29.61 $111,038.00 63,421 -3.65% view
S 2007-02-21 2007-02-22 13:28:53.0 TIMKEN CO TKR ARNOLD MICHAEL C officer (President - Industrial) 15,000 $29.61 $444,150.00 63,421 -3.65% view
S 2007-02-21 2007-02-22 13:28:53.0 TIMKEN CO TKR ARNOLD MICHAEL C officer (President - Industrial) 7,000 $29.61 $207,270.00 63,421 -3.65% view
S 2007-02-20 2007-02-21 11:15:38.0 TIMKEN CO TKR GRIFFITH JAMES W director officer (President and CEO) 16,000 $29.84 $477,440.00 231,894 0.34% view
S 2007-02-20 2007-02-21 10:26:21.0 TIMKEN CO TKR BURKHART WILLIAM R officer (Sr. VP and General Counsel) 6,500 $29.63 $192,595.00 39,522 -0.37% view
S 2007-02-20 2007-02-21 10:26:21.0 TIMKEN CO TKR BURKHART WILLIAM R officer (Sr. VP and General Counsel) 15,000 $29.63 $444,450.00 39,522 -0.37% view
S 2007-02-16 2007-02-20 14:09:59.0 TIMKEN CO TKR MIRAGLIA SALVATORE J JR officer (President - Steel) 20,000 $28.77 $575,400.00 50,197 -0.63% view
S 2007-02-15 2007-02-16 09:50:16.0 TIMKEN CO TKR MIRAGLIA SALVATORE J JR officer (President - Steel) 4,000 $29.19 $116,760.00 70,197 0.65% view
S 2007-02-15 2007-02-16 09:50:16.0 TIMKEN CO TKR MIRAGLIA SALVATORE J JR officer (President - Steel) 7,500 $29.19 $218,925.00 70,197 0.65% view
S 2007-02-15 2007-02-16 09:50:16.0 TIMKEN CO TKR MIRAGLIA SALVATORE J JR officer (President - Steel) 2,500 $29.19 $72,975.00 70,197 0.65% view
S 2007-02-13 2007-02-14 13:26:56.0 TIMKEN CO TKR EISENBERG GLENN A officer (Executive VP-Finance and Admin) 17,500 $29.11 $509,425.00 73,357 1.44% view
S 2007-02-12 2007-02-12 18:00:31.0 TIMKEN CO TKR BURKHART WILLIAM R officer (Sr. VP and General Counsel) 6,500 $28.66 $186,290.00 39,522 -3.07% view
S 2007-02-12 2007-02-12 18:00:31.0 TIMKEN CO TKR BURKHART WILLIAM R officer (Sr. VP and General Counsel) 7,500 $28.66 $214,950.00 39,522 -3.07% view
S 2007-02-09 2007-02-12 11:24:24.0 TIMKEN CO TKR TOOT JOSEPH F JR director 50,000 $28.44 $1,422,000.00 73,808 -4.47% view
S 2007-02-09 2007-02-12 11:22:59.0 TIMKEN CO TKR EISENBERG GLENN A officer (Executive VP-Finance and Admin) 12,500 $28.49 $356,125.00 73,357 -4.28% view
S 2007-02-09 2007-02-12 11:22:59.0 TIMKEN CO TKR EISENBERG GLENN A officer (Executive VP-Finance and Admin) 8,750 $28.49 $249,288.00 73,357 -4.28% view
S 2006-02-06 2006-03-31 14:28:52.0 TIMKEN CO TKR TIMKEN JOHN M JR director 15,000 $30.50 $457,498.00 517,500 4.66% view
S 2006-01-26 2006-03-31 14:27:02.0 TIMKEN CO TKR TIMKEN JOHN M JR director 2,630 $35.28 $92,786.70 18,000 17.94% view
S 2006-02-16 2006-02-17 16:02:17.0 TIMKEN CO TKR BAILEY SALLIE B officer (Sr. VP Finance and Controller) 4,291 $27.94 $119,891.00 20,798 -14.96% view
S 2006-02-06 2006-02-08 14:34:15.0 TIMKEN CO TKR EISENBERG GLENN A officer (Ex. VP - Finance & Admin.) 7,500 $30.57 $229,260.00 60,050 4.87% view
S 2006-02-06 2006-02-08 14:34:15.0 TIMKEN CO TKR EISENBERG GLENN A officer (Ex. VP - Finance & Admin.) 20,000 $30.57 $611,360.00 60,050 4.87% view
P 2006-02-06 2006-02-08 14:27:00.0 TIMKEN CO TKR JASINOWSKI JERRY J director 1,000 $30.75 $30,750.00 4,000 -5.43% view
S 2006-02-06 2006-02-07 14:46:21.0 TIMKEN CO TKR TIMKEN JOHN M JR director 15,000 $30.50 $457,498.00 517,500 4.66% view
S 2006-02-06 2006-02-07 14:44:22.0 TIMKEN CO TKR TIMKEN WARD JACKSON director 15,000 $30.50 $457,498.00 517,500 4.66% view
S 2006-02-03 2006-02-07 11:28:58.0 TIMKEN CO TKR BURKHART WILLIAM R officer (Sr. VP and General Counsel) 10,000 $31.23 $312,260.00 30,657 5.18% view
S 2005-11-29 2005-12-01 14:18:17.0 TIMKEN CO TKR TIMKEN WILLIAM ROBERT JR other 135,000 $30.52 $4,120,440.00 286,965 -5.47% view
S 2005-11-15 2005-11-16 15:28:03.0 TIMKEN CO TKR BAILEY SALLIE B officer (Sr. VP Finance and Controller) 5,399 $29.85 $161,160.00 17,079 -4.79% view
S 2005-11-15 2005-11-16 15:28:03.0 TIMKEN CO TKR BAILEY SALLIE B officer (Sr. VP Finance and Controller) 1,988 $29.85 $59,341.80 14,978 -4.79% view
S 2005-08-31 2005-09-02 09:00:34.0 TIMKEN CO TKR EISENBERG GLENN A officer (Executive VP-Finance and Admin) 6,480 $28.95 $187,596.00 62,224 -2.35% view
S 2005-08-29 2005-08-30 17:13:19.0 TIMKEN CO TKR EISENBERG GLENN A officer (Executive VP-Finance and Admin) 9,513 $28.12 $267,506.00 68,704 -2.42% view
S 2005-08-29 2005-08-30 17:13:19.0 TIMKEN CO TKR EISENBERG GLENN A officer (Executive VP-Finance and Admin) 8,750 $28.39 $248,412.00 78,217 -1.44% view
S 2005-08-24 2005-08-26 11:00:35.0 TIMKEN CO TKR ARNOLD MICHAEL C officer (President - Industrial) 7,500 $27.79 $208,425.00 46,206 -2.02% view
S 2005-08-24 2005-08-26 11:00:35.0 TIMKEN CO TKR ARNOLD MICHAEL C officer (President - Industrial) 10,000 $27.79 $277,900.00 46,206 -2.02% view
S 2005-08-24 2005-08-26 11:00:35.0 TIMKEN CO TKR ARNOLD MICHAEL C officer (President - Industrial) 11,250 $27.79 $312,638.00 46,206 -2.02% view
S 2005-08-24 2005-08-26 11:00:35.0 TIMKEN CO TKR ARNOLD MICHAEL C officer (President - Industrial) 8,750 $27.79 $243,162.00 46,206 -2.02% view
S 2005-08-18 2005-08-19 13:45:13.0 TIMKEN CO TKR TOOT JOSEPH F JR director 9,463 $27.72 $262,314.00 1,000 -3.03% view
S 2005-08-11 2005-08-15 09:48:30.0 TIMKEN CO TKR TIMKEN JOHN M JR director 3,000 $28.45 $85,351.20 381,831 -5.59% view
S 2005-08-11 2005-08-15 09:48:30.0 TIMKEN CO TKR TIMKEN JOHN M JR director 3,000 $28.45 $85,351.20 381,831 -5.59% view
S 2005-08-11 2005-08-15 09:48:30.0 TIMKEN CO TKR TIMKEN JOHN M JR director 3,000 $28.45 $85,351.20 381,831 -5.59% view
S 2005-08-10 2005-08-12 15:58:20.0 TIMKEN CO TKR TIMKEN WILLIAM ROBERT JR director other 10,000 $28.53 $285,292.00 287,730 -5.30% view
S 2005-08-10 2005-08-12 15:58:20.0 TIMKEN CO TKR TIMKEN WILLIAM ROBERT JR director other 127,000 $28.53 $3,623,210.00 287,730 -5.30% view
S 2005-08-10 2005-08-12 15:58:20.0 TIMKEN CO TKR TIMKEN WILLIAM ROBERT JR director other 80,000 $28.53 $2,282,340.00 287,730 -5.30% view
S 2005-08-10 2005-08-12 15:58:20.0 TIMKEN CO TKR TIMKEN WILLIAM ROBERT JR director other 31,000 $28.53 $884,405.00 287,730 -5.30% view
S 2005-08-10 2005-08-11 15:24:54.0 TIMKEN CO TKR EISENBERG GLENN A officer (Executive VP-Finance and Admin) 12,500 $28.50 $356,250.00 78,217 -5.40% view
S 2005-08-10 2005-08-11 15:23:06.0 TIMKEN CO TKR GRIFFITH JAMES W director officer (President and CEO) 10,421 $28.53 $297,311.00 163,385 -5.29% view
S 2005-08-04 2005-08-08 15:18:49.0 TIMKEN CO TKR TIMKEN WILLIAM ROBERT JR director other 15,000 $28.00 $420,000.00 532,500 -5.46% view
S 2005-08-04 2005-08-08 14:54:04.0 TIMKEN CO TKR TIMKEN JOHN M JR director 15,000 $28.00 $420,000.00 532,500 -5.46% view
P 2005-08-03 2005-08-05 14:48:18.0 TIMKEN CO TKR TIMKEN WARD JACKSON director 700 $27.48 $19,236.40 46,548 7.46% view
P 2005-08-03 2005-08-05 14:48:18.0 TIMKEN CO TKR TIMKEN WARD JACKSON director 700 $27.48 $19,236.40 46,548 7.46% view
P 2005-08-03 2005-08-05 14:48:18.0 TIMKEN CO TKR TIMKEN WARD JACKSON director 700 $27.48 $19,236.40 46,548 7.46% view
P 2005-08-03 2005-08-05 14:46:33.0 TIMKEN CO TKR TIMKEN WILLIAM ROBERT JR director other 700 $27.48 $19,236.40 46,548 7.46% view
P 2005-08-03 2005-08-05 14:46:33.0 TIMKEN CO TKR TIMKEN WILLIAM ROBERT JR director other 700 $27.48 $19,236.40 46,548 7.46% view
P 2005-08-03 2005-08-05 14:46:33.0 TIMKEN CO TKR TIMKEN WILLIAM ROBERT JR director other 700 $27.48 $19,236.40 46,548 7.46% view
P 2005-08-03 2005-08-05 14:46:33.0 TIMKEN CO TKR TIMKEN WILLIAM ROBERT JR director other 700 $27.48 $19,236.40 46,548 7.46% view
P 2005-08-03 2005-08-05 14:44:34.0 TIMKEN CO TKR TIMKEN WARD J JR director officer (Vice Chairman & Pres - Steel) 700 $27.48 $19,236.40 46,548 7.46% view
S 2005-08-01 2005-08-03 11:28:02.0 TIMKEN CO TKR TIMKEN JOHN M JR director 10,000 $27.00 $270,000.00 547,500 -10.19% view
S 2005-08-01 2005-08-03 11:25:44.0 TIMKEN CO TKR TIMKEN WILLIAM ROBERT JR director other 10,000 $27.00 $270,000.00 547,500 -10.19% view
P 2005-05-25 2005-05-26 15:47:53.0 TIMKEN CO TKR TIMKEN WILLIAM ROBERT JR director other 320 $23.26 $7,444.80 45,848 2.51% view
P 2005-05-25 2005-05-26 15:47:53.0 TIMKEN CO TKR TIMKEN WILLIAM ROBERT JR director other 320 $23.26 $7,444.80 45,848 2.51% view
P 2005-05-25 2005-05-26 15:47:53.0 TIMKEN CO TKR TIMKEN WILLIAM ROBERT JR director other 320 $23.26 $7,444.80 45,848 2.51% view
P 2005-05-25 2005-05-26 15:47:53.0 TIMKEN CO TKR TIMKEN WILLIAM ROBERT JR director other 320 $23.26 $7,444.80 45,848 2.51% view
P 2005-05-25 2005-05-26 15:46:10.0 TIMKEN CO TKR TIMKEN WARD JACKSON director 320 $23.26 $7,444.80 45,848 2.51% view
P 2005-05-25 2005-05-26 15:46:10.0 TIMKEN CO TKR TIMKEN WARD JACKSON director 320 $23.26 $7,444.80 45,848 2.51% view
P 2005-05-25 2005-05-26 15:46:10.0 TIMKEN CO TKR TIMKEN WARD JACKSON director 320 $23.26 $7,444.80 45,848 2.51% view
P 2005-05-25 2005-05-26 15:44:11.0 TIMKEN CO TKR TIMKEN WARD J JR director officer (Vice Chairman & Pres - Steel) 320 $23.26 $7,444.80 45,848 2.51% view
S 2005-04-27 2005-04-28 09:38:25.0 TIMKEN CO TKR BURKHART WILLIAM R officer (Sr. VP and General Counsel) 1,500 $24.70 $37,050.00 31,130 4.29% view
S 2005-04-27 2005-04-28 09:38:25.0 TIMKEN CO TKR BURKHART WILLIAM R officer (Sr. VP and General Counsel) 13,500 $24.55 $331,425.00 32,630 3.71% view
P 2005-04-21 2005-04-21 13:09:27.0 TIMKEN CO TKR RALSTON JOSEPH W director 1,130 $26.28 $29,696.40 9,227 -6.74% view
S 2005-02-18 2005-02-22 15:12:33.0 TIMKEN CO TKR BAILEY SALLIE B officer (Sr. VP Finance and Controller) 8,000 $27.87 $222,928.00 13,966 1.78% view
S 2005-02-18 2005-02-22 15:12:33.0 TIMKEN CO TKR BAILEY SALLIE B officer (Sr. VP Finance and Controller) 9,000 $27.87 $250,794.00 13,966 1.78% view
S 2005-02-04 2005-02-07 10:08:14.0 TIMKEN CO TKR EISENBERG GLENN A officer (Executive VP-Finance and Admin) 4,487 $27.60 $123,841.00 80,364 -6.01% view
P 2004-11-12 2004-12-17 10:41:42.0 TIMKEN CO TKR RALSTON JOSEPH W director 1,000 $23.98 $23,980.00 7,049 8.72% view
S 2004-11-03 2004-11-04 13:45:27.0 TIMKEN CO TKR TIMKEN WARD JACKSON director 8,250 $24.54 $202,416.00 452,168 -6.99% view
P 2004-08-06 2004-08-10 10:53:21.0 TIMKEN CO TKR TIMKEN WILLIAM ROBERT JR director other 530 $22.98 $12,179.40 45,528 2.70% view
P 2004-08-06 2004-08-10 10:53:21.0 TIMKEN CO TKR TIMKEN WILLIAM ROBERT JR director other 500 $23.00 $11,498.00 44,998 2.63% view
P 2004-08-06 2004-08-10 10:53:21.0 TIMKEN CO TKR TIMKEN WILLIAM ROBERT JR director other 530 $22.98 $12,179.40 45,528 2.70% view
P 2004-08-06 2004-08-10 10:53:21.0 TIMKEN CO TKR TIMKEN WILLIAM ROBERT JR director other 500 $23.00 $11,498.00 44,998 2.63% view
P 2004-08-06 2004-08-10 10:53:21.0 TIMKEN CO TKR TIMKEN WILLIAM ROBERT JR director other 530 $22.98 $12,179.40 45,528 2.70% view
P 2004-08-06 2004-08-10 10:53:21.0 TIMKEN CO TKR TIMKEN WILLIAM ROBERT JR director other 500 $23.00 $11,498.00 44,998 2.63% view
P 2004-08-06 2004-08-10 10:53:21.0 TIMKEN CO TKR TIMKEN WILLIAM ROBERT JR director other 530 $22.98 $12,179.40 45,528 2.70% view
P 2004-08-06 2004-08-10 10:53:21.0 TIMKEN CO TKR TIMKEN WILLIAM ROBERT JR director other 500 $23.00 $11,498.00 44,998 2.63% view
P 2004-08-06 2004-08-10 10:53:21.0 TIMKEN CO TKR TIMKEN WARD JACKSON director 530 $22.98 $12,179.40 45,528 2.70% view
P 2004-08-06 2004-08-10 10:53:21.0 TIMKEN CO TKR TIMKEN WARD JACKSON director 500 $23.00 $11,498.00 44,998 2.63% view
P 2004-08-06 2004-08-10 10:53:21.0 TIMKEN CO TKR TIMKEN WARD JACKSON director 530 $22.98 $12,179.40 45,528 2.70% view
P 2004-08-06 2004-08-10 10:53:21.0 TIMKEN CO TKR TIMKEN WARD JACKSON director 500 $23.00 $11,498.00 44,998 2.63% view
P 2004-08-06 2004-08-10 10:53:21.0 TIMKEN CO TKR TIMKEN WARD JACKSON director 530 $22.98 $12,179.40 45,528 2.70% view
P 2004-08-06 2004-08-10 10:53:21.0 TIMKEN CO TKR TIMKEN WARD JACKSON director 500 $23.00 $11,498.00 44,998 2.63% view
P 2004-08-06 2004-08-09 16:57:20.0 TIMKEN CO TKR TIMKEN WARD J JR director officer (Exec. VP & Pres - Steel Group) 530 $22.98 $12,179.40 45,528 2.70% view
P 2004-08-06 2004-08-09 16:57:20.0 TIMKEN CO TKR TIMKEN WARD J JR director officer (Exec. VP & Pres - Steel Group) 500 $23.00 $11,498.00 44,998 2.63% view
S 2004-08-04 2004-08-06 14:51:59.0 TIMKEN CO TKR BURKHART WILLIAM R officer (Sr. VP and General Counsel) 6,177 $23.99 $148,186.00 27,846 1.63% view
S 2004-08-04 2004-08-06 14:51:59.0 TIMKEN CO TKR BURKHART WILLIAM R officer (Sr. VP and General Counsel) 5,634 $23.99 $135,160.00 26,523 1.63% view
S 2004-08-04 2004-08-06 14:51:59.0 TIMKEN CO TKR BURKHART WILLIAM R officer (Sr. VP and General Counsel) 3,610 $23.99 $86,603.90 24,567 1.63% view
S 2004-08-04 2004-08-06 14:51:59.0 TIMKEN CO TKR BURKHART WILLIAM R officer (Sr. VP and General Counsel) 9,756 $23.99 $234,046.00 24,167 1.63% view
P 2004-07-26 2004-07-27 15:50:46.0 TIMKEN CO TKR RALSTON JOSEPH W director 1,000 $24.05 $24,050.00 6,049 -1.04% view
S 2004-05-27 2004-06-01 16:11:11.0 TIMKEN CO TKR EISENBERG GLENN A officer (Exec. VP-Finance and Admin.) 10,500 $22.70 $238,350.00 66,700 -11.01% view
S 2004-05-28 2004-06-01 16:06:36.0 TIMKEN CO TKR BURKHART WILLIAM R officer (Sr. VP and General Counsel) 355 $22.68 $8,051.40 21,423 -12.87% view
S 2004-05-28 2004-06-01 16:06:36.0 TIMKEN CO TKR BURKHART WILLIAM R officer (Sr. VP and General Counsel) 130 $22.79 $2,962.70 21,778 -12.33% view
S 2004-05-28 2004-06-01 16:06:36.0 TIMKEN CO TKR BURKHART WILLIAM R officer (Sr. VP and General Counsel) 8,800 $22.55 $198,440.00 21,908 -13.53% view
S 2004-05-28 2004-06-01 16:06:36.0 TIMKEN CO TKR BURKHART WILLIAM R officer (Sr. VP and General Counsel) 12,500 $22.55 $281,875.00 15,708 -13.53% view
* An * after P or S in the Buy/Sell column means the transaction was filed by the insider as open market, but it was marked as private transaction by insidercow's proprietary method
Enter Another Stock Symbol: